Terminal Aerodrome Forecast
Issued by NWS Denver/Boulder, CO

Home | Current Version | Previous Version | Text Only | Print | Product List | Glossary On
Versions: 1 2 3 4 5 6 7 8 9 10 11 12 13 14 15 16 17 18 19 20 21 22 23 24 25 26 27 28 29 30 31 32 33 34 35 36 37 38 39 40 41 42 43 44 45 46 47 48 49 50
000
FTUS45 KBOU 261127
TAFDEN
TAF
KDEN 261127Z 2612/2718 22010KT P6SM FEW120 SCT200
     FM261300 VRB05KT P6SM FEW120 SCT200
     FM261500 03008KT P6SM FEW100 SCT200
     FM262000 08008KT P6SM SCT080 BKN120
      TEMPO 2621/2701 VRB20G35KT -TSRA BKN070CB
     FM270200 17011KT P6SM SCT080 BKN120
     FM270400 21010KT P6SM FEW120 BKN200
     FM271500 03008KT P6SM FEW070 SCT120=

USA.gov is the U.S. government's official web portal to all federal, state and local government web resources and services.